createdAt,value
2022-09-12T00:01:27.120Z,9.50
2022-09-12T00:03:56.750Z,8.70
2022-09-12T00:06:30.435Z,9.75
2022-09-12T00:09:02.126Z,7.57
2022-09-12T00:11:30.267Z,10.75
2022-09-12T00:13:59.490Z,11.25
2022-09-12T00:16:29.107Z,9.18
2022-09-12T00:18:56.915Z,9.38
2022-09-12T00:21:24.862Z,7.47
2022-09-12T00:23:52.687Z,7.90
2022-09-12T00:26:21.139Z,8.63
2022-09-12T00:28:49.531Z,8.80
2022-09-12T00:31:20.555Z,10.65
2022-09-12T00:33:48.157Z,11.85
2022-09-12T00:36:19.544Z,11.30
2022-09-12T00:38:48.100Z,10.32
2022-09-12T00:41:44.985Z,10.05
2022-09-12T00:44:12.476Z,10.77
2022-09-12T00:46:48.522Z,12.38
2022-09-12T00:49:23.624Z,10.10
2022-09-12T00:52:13.247Z,9.55
2022-09-12T00:54:55.465Z,10.95
2022-09-12T00:57:27.980Z,12.52
2022-09-12T01:00:16.980Z,11.50
2022-09-12T01:02:48.486Z,14.25
2022-09-12T01:07:44.774Z,8.65
2022-09-12T01:10:12.346Z,9.90
2022-09-12T01:12:41.301Z,10.70
2022-09-12T01:15:10.197Z,14.50
2022-09-12T01:18:00.593Z,11.75
2022-09-12T01:20:57.967Z,12.07
2022-09-12T01:23:43.370Z,12.52
2022-09-12T01:26:13.991Z,13.00
2022-09-12T01:29:26.445Z,16.07
2022-09-12T01:32:17.912Z,12.68
2022-09-12T01:35:01.490Z,13.48
2022-09-12T01:37:44.915Z,13.07
2022-09-12T01:40:22.409Z,12.30
2022-09-12T01:43:04.607Z,16.00
2022-09-12T01:45:50.171Z,15.73
2022-09-12T01:48:22.566Z,15.70
2022-09-12T01:51:04.146Z,15.32
2022-09-12T01:53:51.238Z,17.50
2022-09-12T01:56:27.523Z,15.98
2022-09-12T01:58:58.060Z,16.65
2022-09-12T02:01:36.630Z,18.20
2022-09-12T02:04:16.927Z,16.85
2022-09-12T02:07:11.651Z,17.05
2022-09-12T02:09:47.279Z,17.17
2022-09-12T02:12:19.218Z,15.05
2022-09-12T02:14:54.141Z,18.38
2022-09-12T02:17:24.661Z,17.10
2022-09-12T02:20:01.061Z,16.98
2022-09-12T02:22:31.564Z,17.02
2022-09-12T02:25:01.151Z,17.17
2022-09-12T02:28:06.873Z,17.02
2022-09-12T02:30:44.402Z,16.45
2022-09-12T02:33:24.945Z,18.00
2022-09-12T02:36:00.527Z,18.02
2022-09-12T02:38:40.989Z,17.00
2022-09-12T02:41:08.973Z,19.10
2022-09-12T02:43:37.917Z,20.25
2022-09-12T02:46:13.512Z,16.38
2022-09-12T02:48:43.535Z,18.85
2022-09-12T02:51:12.153Z,18.00
2022-09-12T02:53:40.502Z,18.60
2022-09-12T02:56:13.354Z,25.50
2022-09-12T02:58:41.070Z,18.48
2022-09-12T03:01:46.615Z,18.20
2022-09-12T03:04:38.677Z,16.58
2022-09-12T03:07:24.603Z,20.17
2022-09-12T03:10:16.563Z,18.77
2022-09-12T03:12:50.179Z,18.38
2022-09-12T03:15:51.596Z,21.00
2022-09-12T03:19:01.664Z,17.38
2022-09-12T03:21:37.187Z,19.65
2022-09-12T03:24:08.127Z,17.67
2022-09-12T03:26:39.755Z,22.02
2022-09-12T03:29:08.404Z,23.90
2022-09-12T03:31:35.906Z,22.77
2022-09-12T03:34:03.694Z,23.73
2022-09-12T03:36:31.482Z,24.58
2022-09-12T03:38:59.023Z,22.65
2022-09-12T03:41:26.554Z,21.85
2022-09-12T03:43:54.252Z,22.13
2022-09-12T03:46:21.754Z,19.25
2022-09-12T03:48:50.828Z,22.10
2022-09-12T03:51:18.393Z,25.58
2022-09-12T03:53:45.918Z,20.95
2022-09-12T03:56:14.772Z,23.13
2022-09-12T03:58:42.639Z,24.80
2022-09-12T04:01:12.749Z,23.02
2022-09-12T04:03:44.661Z,23.25
2022-09-12T04:06:14.824Z,25.25
2022-09-12T04:08:43.640Z,23.17
2022-09-12T04:11:14.380Z,22.00
2022-09-12T04:13:44.022Z,22.57
2022-09-12T04:16:13.643Z,23.77
2022-09-12T04:18:41.381Z,23.50
2022-09-12T04:21:15.013Z,23.48
2022-09-12T04:23:42.927Z,22.48
2022-09-12T04:26:11.233Z,24.38
2022-09-12T04:28:39.432Z,21.80
2022-09-12T04:31:11.447Z,25.85
2022-09-12T04:33:39.242Z,22.83
2022-09-12T04:36:16.590Z,22.00
2022-09-12T04:38:46.299Z,23.95
2022-09-12T04:41:16.282Z,25.13
2022-09-12T04:43:46.420Z,23.58
2022-09-12T04:46:16.648Z,22.33
2022-09-12T04:48:44.665Z,25.10
2022-09-12T04:51:18.455Z,22.35
2022-09-12T04:53:49.746Z,26.00
2022-09-12T04:56:17.705Z,26.13
2022-09-12T04:58:46.114Z,25.60
2022-09-12T05:01:19.580Z,26.50
2022-09-12T05:03:48.490Z,24.35
2022-09-12T05:06:21.204Z,24.65
2022-09-12T05:08:48.867Z,25.48
2022-09-12T05:14:32.589Z,24.67
2022-09-12T05:17:01.798Z,24.52
2022-09-12T05:19:31.008Z,26.23
2022-09-12T05:21:59.414Z,26.30
2022-09-12T05:24:27.045Z,25.80
2022-09-12T05:26:54.609Z,22.30
2022-09-12T05:29:22.140Z,27.85
2022-09-12T05:31:52.159Z,27.63
2022-09-12T05:34:21.030Z,26.23
2022-09-12T05:36:49.121Z,28.48
2022-09-12T05:39:16.796Z,28.55
2022-09-12T05:41:44.469Z,27.67
2022-09-12T05:44:14.292Z,26.52
2022-09-12T05:46:44.067Z,32.15
2022-09-12T05:49:13.393Z,33.42
2022-09-12T05:51:43.830Z,27.30
2022-09-12T05:54:14.688Z,25.75
2022-09-12T05:56:43.989Z,30.25
2022-09-12T05:59:20.226Z,30.05
2022-09-12T06:01:48.676Z,24.98
2022-09-12T06:04:17.384Z,28.83
2022-09-12T06:06:46.205Z,25.98
2022-09-12T06:09:16.051Z,28.55
2022-09-12T06:11:44.572Z,25.40
2022-09-12T06:14:14.303Z,27.58
2022-09-12T06:16:42.316Z,27.92
2022-09-12T06:19:19.313Z,25.05
2022-09-12T06:21:48.395Z,26.77
2022-09-12T06:24:17.671Z,28.90
2022-09-12T06:26:45.842Z,27.13
2022-09-12T06:29:14.293Z,23.63
2022-09-12T06:31:43.215Z,23.98
2022-09-12T06:34:14.064Z,28.60
2022-09-12T06:36:47.231Z,24.23
2022-09-12T06:39:17.437Z,29.88
2022-09-12T06:41:45.810Z,25.63
2022-09-12T06:44:16.707Z,24.50
2022-09-12T06:46:44.643Z,29.40
2022-09-12T06:49:12.551Z,25.73
2022-09-12T06:51:42.162Z,24.23
2022-09-12T06:54:12.703Z,23.15
2022-09-12T06:56:40.604Z,21.55
2022-09-12T06:59:08.508Z,22.05
2022-09-12T07:01:36.313Z,23.65
2022-09-12T07:04:04.875Z,20.38
2022-09-12T07:06:38.405Z,21.83
2022-09-12T07:09:07.613Z,29.23
2022-09-12T07:11:37.142Z,27.75
2022-09-12T07:14:06.617Z,19.42
2022-09-12T07:16:36.628Z,20.40
2022-09-12T07:19:06.642Z,21.42
2022-09-12T07:21:39.629Z,19.40
2022-09-12T07:24:09.602Z,19.40
2022-09-12T07:26:40.847Z,18.90
2022-09-12T07:29:35.940Z,25.40
2022-09-12T07:32:04.197Z,20.90
2022-09-12T07:34:32.053Z,18.98
2022-09-12T07:36:59.552Z,17.88
2022-09-12T07:39:27.139Z,19.90
2022-09-12T07:41:54.961Z,17.65
2022-09-12T07:44:22.895Z,17.58
2022-09-12T07:46:50.840Z,19.25
2022-09-12T07:49:18.479Z,15.27
2022-09-12T07:51:46.048Z,12.55
2022-09-12T07:54:13.799Z,14.25
2022-09-12T07:56:41.460Z,16.52
2022-09-12T07:59:09.110Z,14.77
2022-09-12T08:01:36.831Z,14.02
2022-09-12T08:04:05.289Z,16.48
2022-09-12T08:06:35.915Z,14.98
2022-09-12T08:09:05.634Z,15.23
2022-09-12T08:11:33.330Z,13.95
2022-09-12T08:14:02.985Z,14.90
2022-09-12T08:16:32.365Z,15.90
2022-09-12T08:19:04.483Z,14.35
2022-09-12T08:21:33.224Z,13.38
2022-09-12T08:24:03.879Z,13.57
2022-09-12T08:26:32.882Z,15.33
2022-09-12T08:29:00.802Z,12.18
2022-09-12T08:31:28.928Z,14.18
2022-09-12T08:33:57.572Z,14.25
2022-09-12T08:36:27.813Z,11.90
2022-09-12T08:39:00.921Z,14.98
2022-09-12T08:41:37.774Z,14.27
2022-09-12T08:44:23.868Z,12.27
2022-09-12T08:47:03.362Z,15.75
2022-09-12T08:49:36.494Z,14.38
2022-09-12T08:52:31.527Z,11.52
2022-09-12T08:55:00.393Z,11.65
2022-09-12T08:57:27.970Z,13.65
2022-09-12T08:59:56.256Z,9.82
2022-09-12T09:02:42.184Z,12.60
2022-09-12T09:05:23.840Z,15.38
2022-09-12T09:10:45.175Z,13.25
2022-09-12T09:13:38.463Z,21.13
2022-09-12T09:16:07.168Z,11.43
2022-09-12T09:18:36.058Z,10.63
2022-09-12T09:21:19.031Z,14.93
2022-09-12T09:23:53.474Z,10.15
2022-09-12T09:26:35.967Z,9.23
2022-09-12T09:29:11.172Z,13.20
2022-09-12T09:31:39.742Z,9.23
2022-09-12T09:34:22.023Z,8.52
2022-09-12T09:36:57.960Z,8.05
2022-09-12T09:39:44.099Z,10.35
2022-09-12T09:42:27.144Z,8.57
2022-09-12T09:44:59.052Z,9.45
2022-09-12T09:47:26.687Z,9.57
2022-09-12T09:49:54.164Z,9.75
2022-09-12T09:52:28.490Z,10.38
2022-09-12T09:55:01.732Z,10.82
2022-09-12T09:57:35.253Z,8.40
2022-09-12T10:00:27.605Z,9.95
2022-09-12T10:03:12.748Z,10.10
2022-09-12T10:05:53.846Z,10.15
2022-09-12T10:08:33.659Z,7.75
2022-09-12T10:11:16.343Z,10.77
2022-09-12T10:13:58.442Z,10.65
2022-09-12T10:16:29.215Z,12.10
2022-09-12T10:18:59.290Z,9.25
2022-09-12T10:21:56.611Z,7.93
2022-09-12T10:24:35.391Z,9.77
2022-09-12T10:27:14.358Z,8.25
2022-09-12T10:29:48.602Z,9.88
2022-09-12T10:32:31.117Z,8.38
2022-09-12T10:35:26.946Z,7.03
2022-09-12T10:37:59.982Z,9.07
2022-09-12T10:40:38.912Z,8.80
2022-09-12T10:43:28.001Z,8.77
2022-09-12T10:46:00.881Z,9.73
2022-09-12T10:48:33.019Z,6.13
2022-09-12T10:51:01.562Z,7.57
2022-09-12T10:53:39.750Z,7.78
2022-09-12T10:56:14.733Z,8.52
2022-09-12T10:59:00.320Z,7.00
2022-09-12T11:01:47.218Z,5.22
2022-09-12T11:04:21.111Z,5.78
2022-09-12T11:07:03.751Z,5.30
2022-09-12T11:09:46.193Z,5.32
2022-09-12T11:12:19.739Z,9.15
2022-09-12T11:15:18.983Z,5.97
2022-09-12T11:17:46.992Z,6.00
2022-09-12T11:20:40.961Z,7.32
2022-09-12T11:23:36.252Z,5.40
2022-09-12T11:26:06.762Z,6.43
2022-09-12T11:28:48.103Z,4.55
2022-09-12T11:31:30.916Z,7.50
2022-09-12T11:34:00.516Z,4.10
2022-09-12T11:36:46.687Z,4.43
2022-09-12T11:39:22.959Z,6.70
2022-09-12T11:41:57.688Z,6.20
2022-09-12T11:44:55.074Z,7.53
2022-09-12T11:47:24.439Z,6.97
2022-09-12T11:49:54.804Z,7.50
2022-09-12T11:52:33.752Z,7.97
2022-09-12T11:55:07.732Z,6.50
2022-09-12T11:57:44.132Z,7.55
2022-09-12T12:00:33.957Z,6.13
2022-09-12T12:03:30.498Z,8.07
2022-09-12T12:06:01.498Z,9.63
2022-09-12T12:08:32.003Z,7.72
2022-09-12T12:11:02.235Z,6.95
2022-09-12T12:13:53.021Z,11.90
2022-09-12T12:16:26.097Z,8.80
2022-09-12T12:19:00.333Z,7.07
2022-09-12T12:21:45.153Z,6.82
2022-09-12T12:24:14.015Z,10.68
2022-09-12T12:26:41.525Z,9.98
2022-09-12T12:29:17.703Z,11.80
2022-09-12T12:32:01.975Z,7.85
2022-09-12T12:34:41.097Z,7.63
2022-09-12T12:37:25.369Z,23.40
2022-09-12T12:40:01.105Z,8.23
2022-09-12T12:42:35.160Z,7.60
2022-09-12T12:45:08.807Z,6.97
2022-09-12T12:47:36.329Z,6.93
2022-09-12T12:50:26.906Z,10.50
2022-09-12T12:52:58.464Z,10.20
2022-09-12T12:55:45.999Z,10.90
2022-09-12T12:58:31.796Z,9.80
2022-09-12T13:01:16.905Z,8.18
2022-09-12T13:03:57.094Z,10.30
2022-09-12T13:06:40.386Z,8.30
2022-09-12T13:09:09.303Z,8.20
2022-09-12T13:11:41.219Z,10.18
2022-09-12T13:15:03.814Z,10.15
2022-09-12T13:17:47.184Z,9.05
2022-09-12T13:20:28.197Z,10.88
2022-09-12T13:22:57.362Z,12.82
2022-09-12T13:25:37.493Z,15.23
2022-09-12T13:28:13.306Z,14.05
2022-09-12T13:30:44.687Z,13.23
2022-09-12T13:35:59.263Z,13.38
2022-09-12T13:38:51.343Z,11.52
2022-09-12T13:41:30.979Z,11.18
2022-09-12T13:43:59.068Z,14.43
2022-09-12T13:46:33.971Z,13.77
2022-09-12T13:49:11.423Z,14.90
2022-09-12T13:51:39.021Z,11.52
2022-09-12T13:54:06.764Z,16.40
2022-09-12T13:56:34.478Z,17.65
2022-09-12T13:59:02.997Z,13.35
2022-09-12T14:01:45.128Z,15.32
2022-09-12T14:04:39.417Z,15.10
2022-09-12T14:07:20.367Z,20.48
2022-09-12T14:09:59.814Z,17.55
2022-09-12T14:12:42.811Z,19.85
2022-09-12T14:15:19.785Z,19.52
2022-09-12T14:17:53.071Z,15.93
2022-09-12T14:20:23.403Z,16.67
2022-09-12T14:22:52.515Z,16.30
2022-09-12T14:25:24.485Z,15.00
2022-09-12T14:27:54.691Z,16.05
2022-09-12T14:30:39.063Z,16.38
2022-09-12T14:33:12.786Z,17.02
2022-09-12T14:35:52.291Z,16.20
2022-09-12T14:38:31.143Z,12.88
2022-09-12T14:41:06.316Z,18.52
2022-09-12T14:43:36.206Z,14.95
2022-09-12T14:46:05.745Z,29.08
2022-09-12T14:48:43.138Z,17.27
2022-09-12T14:51:44.717Z,15.10
2022-09-12T14:54:29.207Z,17.80
2022-09-12T14:56:59.504Z,16.73
2022-09-12T14:59:27.275Z,18.95
2022-09-12T15:02:13.629Z,19.60
2022-09-12T15:04:43.298Z,15.05
2022-09-12T15:07:36.956Z,19.38
2022-09-12T15:10:25.581Z,25.52
2022-09-12T15:13:19.416Z,19.67
2022-09-12T15:15:49.436Z,19.63
2022-09-12T15:18:18.267Z,20.27
2022-09-12T15:20:47.682Z,22.98
2022-09-12T15:23:27.315Z,18.25
2022-09-12T15:25:54.959Z,19.33
2022-09-12T15:28:24.021Z,16.15
2022-09-12T15:30:54.650Z,17.25
2022-09-12T15:33:24.252Z,18.42
2022-09-12T15:35:53.482Z,15.32
2022-09-12T15:38:26.348Z,16.08
2022-09-12T15:40:54.685Z,16.85
2022-09-12T15:43:23.828Z,20.13
2022-09-12T15:45:52.413Z,17.13
2022-09-12T15:48:21.047Z,15.20
2022-09-12T15:50:48.613Z,18.50
2022-09-12T15:53:17.341Z,20.27
2022-09-12T15:55:45.450Z,18.90
2022-09-12T15:58:13.138Z,16.38
2022-09-12T16:00:41.090Z,18.77
2022-09-12T16:03:22.041Z,17.67
2022-09-12T16:05:50.387Z,17.35
2022-09-12T16:08:17.928Z,15.65
2022-09-12T16:10:49.534Z,14.07
2022-09-12T16:13:17.554Z,14.45
2022-09-12T16:15:45.123Z,12.93
2022-09-12T16:18:13.230Z,11.35
2022-09-12T16:20:41.121Z,14.93
2022-09-12T16:23:12.075Z,12.65
2022-09-12T16:25:43.081Z,14.93
2022-09-12T16:28:10.802Z,12.38
2022-09-12T16:30:38.362Z,14.48
2022-09-12T16:33:05.923Z,10.00
2022-09-12T16:35:33.491Z,10.93
2022-09-12T16:38:01.252Z,11.40
2022-09-12T16:40:28.787Z,12.73
2022-09-12T16:42:56.331Z,11.20
2022-09-12T16:45:23.867Z,11.50
2022-09-12T16:47:51.387Z,12.80
2022-09-12T16:50:18.912Z,11.35
2022-09-12T16:52:46.427Z,7.60
2022-09-12T16:55:14.011Z,9.38
2022-09-12T16:57:41.663Z,7.68
2022-09-12T17:00:09.996Z,8.70
2022-09-12T17:02:37.687Z,8.77
2022-09-12T17:05:05.840Z,10.45
2022-09-12T17:07:34.509Z,9.80
2022-09-12T17:10:02.047Z,10.25
2022-09-12T17:12:29.746Z,15.85
2022-09-12T17:14:58.287Z,20.73
2022-09-12T17:17:25.915Z,24.40
2022-09-12T17:19:53.742Z,22.67
2022-09-12T17:22:21.382Z,24.90
2022-09-12T17:24:49.656Z,21.13
2022-09-12T17:27:17.267Z,20.35
2022-09-12T17:29:44.758Z,22.52
2022-09-12T17:32:15.600Z,24.52
2022-09-12T17:34:45.040Z,26.95
2022-09-12T17:37:13.575Z,26.85
2022-09-12T17:39:41.256Z,16.95
2022-09-12T17:42:08.899Z,17.33
2022-09-12T17:44:37.157Z,15.27
2022-09-12T17:47:05.202Z,14.40
2022-09-12T17:49:33.965Z,12.27
2022-09-12T17:52:02.330Z,8.85
2022-09-12T17:54:31.024Z,10.55
2022-09-12T17:56:59.373Z,8.63
2022-09-12T17:59:27.210Z,8.23
2022-09-12T18:02:13.399Z,9.23
2022-09-12T18:04:42.124Z,7.60
2022-09-12T18:07:09.905Z,7.90
2022-09-12T18:09:37.635Z,9.18
2022-09-12T18:12:05.918Z,7.93
2022-09-12T18:14:33.875Z,8.45
2022-09-12T18:17:01.929Z,8.25
2022-09-12T18:19:29.539Z,9.40
2022-09-12T18:21:57.637Z,8.48
2022-09-12T18:24:25.241Z,11.77
2022-09-12T18:26:53.036Z,10.05
2022-09-12T18:29:20.725Z,9.77
2022-09-12T18:31:48.620Z,7.72
2022-09-12T18:34:17.238Z,7.93
2022-09-12T18:36:47.373Z,9.52
2022-09-12T18:39:15.753Z,8.45
2022-09-12T18:41:43.777Z,7.70
2022-09-12T18:44:12.193Z,7.05
2022-09-12T18:46:39.952Z,10.45
2022-09-12T18:49:09.357Z,10.55
2022-09-12T18:51:40.055Z,11.85
2022-09-12T18:54:12.870Z,15.57
2022-09-12T18:56:43.507Z,15.20
2022-09-12T18:59:15.382Z,18.40
2022-09-12T19:01:43.379Z,17.30
2022-09-12T19:04:12.808Z,21.05
2022-09-12T19:06:42.924Z,18.92
2022-09-12T19:09:12.485Z,19.98
2022-09-12T19:11:49.969Z,22.80
2022-09-12T19:14:20.343Z,16.42
2022-09-12T19:16:48.130Z,12.93
2022-09-12T19:19:15.849Z,12.30
2022-09-12T19:21:43.758Z,10.07
2022-09-12T19:24:11.759Z,11.27
2022-09-12T19:26:39.522Z,9.88
2022-09-12T19:29:08.424Z,11.10
2022-09-12T19:31:36.033Z,10.20
2022-09-12T19:34:06.109Z,11.32
2022-09-12T19:36:44.867Z,12.30
2022-09-12T19:39:14.911Z,11.52
2022-09-12T19:41:44.349Z,14.20
2022-09-12T19:44:13.819Z,11.77
2022-09-12T19:46:41.959Z,11.52
2022-09-12T19:49:11.649Z,14.18
2022-09-12T19:51:39.359Z,9.20
2022-09-12T19:54:07.825Z,8.38
2022-09-12T19:56:35.490Z,12.00
2022-09-12T19:59:06.778Z,14.35
2022-09-12T20:01:37.142Z,8.88
2022-09-12T20:04:05.412Z,11.13
2022-09-12T20:06:33.042Z,14.60
2022-09-12T20:09:00.765Z,8.57
2022-09-12T20:11:28.459Z,6.75
2022-09-12T20:13:56.062Z,9.70
2022-09-12T20:16:26.591Z,12.13
2022-09-12T20:18:57.133Z,14.17
2022-09-12T20:21:36.734Z,11.18
2022-09-12T20:24:11.589Z,11.75
2022-09-12T20:26:40.090Z,10.57
2022-09-12T20:29:08.848Z,8.80
2022-09-12T20:31:38.539Z,9.63
2022-09-12T20:34:07.272Z,9.55
2022-09-12T20:36:34.875Z,12.10
2022-09-12T20:39:03.577Z,12.95
2022-09-12T20:41:34.549Z,15.23
2022-09-12T20:44:02.331Z,9.90
2022-09-12T20:46:29.952Z,15.40
2022-09-12T20:48:58.576Z,16.23
2022-09-12T20:51:30.826Z,13.38
2022-09-12T20:54:03.574Z,15.70
2022-09-12T20:56:33.494Z,11.88
2022-09-12T20:59:01.469Z,11.45
2022-09-12T21:01:31.417Z,19.27
2022-09-12T21:04:00.877Z,15.27
2022-09-12T21:06:28.955Z,14.77
2022-09-12T21:08:59.871Z,11.43
2022-09-12T21:11:28.258Z,12.35
2022-09-12T21:13:56.368Z,11.63
2022-09-12T21:16:24.318Z,15.45
2022-09-12T21:18:57.931Z,17.63
2022-09-12T21:21:26.663Z,16.55
2022-09-12T21:23:58.523Z,15.02
2022-09-12T21:26:26.170Z,17.05
2022-09-12T21:28:53.803Z,16.38
2022-09-12T21:31:21.509Z,12.90
2022-09-12T21:33:49.194Z,14.40
2022-09-12T21:36:17.080Z,17.10
2022-09-12T21:38:44.671Z,13.63
2022-09-12T21:41:15.450Z,11.73
2022-09-12T21:43:44.159Z,11.23
2022-09-12T21:46:12.339Z,10.05
2022-09-12T21:48:40.180Z,8.80
2022-09-12T21:51:07.878Z,11.18
2022-09-12T21:53:35.864Z,8.18
2022-09-12T21:56:08.441Z,9.40
2022-09-12T21:58:36.764Z,13.93
2022-09-12T22:01:05.947Z,11.70
2022-09-12T22:03:33.752Z,8.52
2022-09-12T22:06:03.894Z,15.93
2022-09-12T22:08:33.488Z,13.88
2022-09-12T22:11:04.647Z,10.45
2022-09-12T22:13:32.523Z,13.20
2022-09-12T22:16:02.997Z,16.65
2022-09-12T22:18:35.924Z,12.70
2022-09-12T22:21:09.588Z,15.57
2022-09-12T22:23:55.564Z,15.95
2022-09-12T22:26:23.743Z,10.07
2022-09-12T22:28:51.710Z,12.55
2022-09-12T22:31:19.617Z,12.05
2022-09-12T22:33:48.094Z,12.02
2022-09-12T22:36:15.706Z,11.82
2022-09-12T22:38:43.457Z,9.32
2022-09-12T22:41:12.445Z,14.68
2022-09-12T22:43:40.155Z,14.20
2022-09-12T22:46:09.530Z,14.60
2022-09-12T22:48:38.177Z,15.75
2022-09-12T22:51:06.370Z,12.93
2022-09-12T22:53:34.522Z,13.65
2022-09-12T22:56:05.077Z,11.68
2022-09-12T22:58:36.758Z,8.63
2022-09-12T23:01:07.659Z,11.85
2022-09-12T23:03:36.415Z,10.75
2022-09-12T23:06:05.612Z,15.30
2022-09-12T23:08:35.246Z,10.98
2022-09-12T23:11:14.275Z,9.82
2022-09-12T23:13:44.084Z,9.63
2022-09-12T23:16:20.771Z,12.45
2022-09-12T23:18:49.054Z,16.42
2022-09-12T23:21:18.890Z,14.43
2022-09-12T23:23:46.846Z,13.32
2022-09-12T23:26:15.941Z,14.60
2022-09-12T23:28:55.242Z,11.20
2022-09-12T23:31:24.544Z,9.32
2022-09-12T23:33:55.814Z,13.40
2022-09-12T23:36:24.066Z,10.90
2022-09-12T23:38:52.121Z,13.00
2022-09-12T23:41:19.792Z,12.23
2022-09-12T23:43:47.395Z,13.18
2022-09-12T23:46:16.379Z,11.45
2022-09-12T23:48:44.678Z,13.13
2022-09-12T23:51:12.707Z,14.63
2022-09-12T23:53:41.232Z,11.52
2022-09-12T23:56:09.042Z,10.30
2022-09-12T23:58:36.824Z,11.30
